sensor_id;sensor_type;location;lat;lon;timestamp;P1;durP1;ratioP1;P2;durP2;ratioP2
33836;SDS011;20140;49.356;8.812;2022-12-17T00:01:38;24.33;;;14.77;;
33836;SDS011;20140;49.356;8.812;2022-12-17T00:14:21;24.65;;;14.50;;
33836;SDS011;20140;49.356;8.812;2022-12-17T00:17:04;20.67;;;13.25;;
33836;SDS011;20140;49.356;8.812;2022-12-17T00:23:11;20.00;;;12.63;;
33836;SDS011;20140;49.356;8.812;2022-12-17T00:25:55;20.77;;;13.05;;
33836;SDS011;20140;49.356;8.812;2022-12-17T00:28:39;21.98;;;13.07;;
33836;SDS011;20140;49.356;8.812;2022-12-17T00:31:27;20.90;;;13.65;;
33836;SDS011;20140;49.356;8.812;2022-12-17T00:37:34;20.85;;;13.13;;
33836;SDS011;20140;49.356;8.812;2022-12-17T00:40:19;18.70;;;13.10;;
33836;SDS011;20140;49.356;8.812;2022-12-17T00:46:25;17.83;;;12.40;;
33836;SDS011;20140;49.356;8.812;2022-12-17T00:52:31;22.00;;;13.80;;
33836;SDS011;20140;49.356;8.812;2022-12-17T01:08:43;20.42;;;13.27;;
33836;SDS011;20140;49.356;8.812;2022-12-17T01:11:29;18.05;;;11.38;;
33836;SDS011;20140;49.356;8.812;2022-12-17T01:14:14;18.83;;;11.98;;
33836;SDS011;20140;49.356;8.812;2022-12-17T01:16:58;19.95;;;13.07;;
33836;SDS011;20140;49.356;8.812;2022-12-17T01:19:42;19.63;;;12.38;;
33836;SDS011;20140;49.356;8.812;2022-12-17T01:22:26;21.13;;;13.27;;
33836;SDS011;20140;49.356;8.812;2022-12-17T01:25:10;18.65;;;12.68;;
33836;SDS011;20140;49.356;8.812;2022-12-17T01:27:54;26.15;;;14.43;;
33836;SDS011;20140;49.356;8.812;2022-12-17T01:30:38;24.45;;;15.13;;
33836;SDS011;20140;49.356;8.812;2022-12-17T01:33:22;23.88;;;14.05;;
33836;SDS011;20140;49.356;8.812;2022-12-17T01:36:06;19.38;;;12.75;;
33836;SDS011;20140;49.356;8.812;2022-12-17T01:38:50;17.20;;;12.07;;
33836;SDS011;20140;49.356;8.812;2022-12-17T01:41:34;21.67;;;13.00;;
33836;SDS011;20140;49.356;8.812;2022-12-17T01:47:21;21.05;;;12.70;;
33836;SDS011;20140;49.356;8.812;2022-12-17T01:50:06;19.13;;;12.77;;
33836;SDS011;20140;49.356;8.812;2022-12-17T01:52:52;18.98;;;11.93;;
33836;SDS011;20140;49.356;8.812;2022-12-17T01:55:39;21.58;;;12.00;;
33836;SDS011;20140;49.356;8.812;2022-12-17T01:58:24;23.52;;;12.35;;
33836;SDS011;20140;49.356;8.812;2022-12-17T02:01:08;20.60;;;12.67;;
33836;SDS011;20140;49.356;8.812;2022-12-17T02:03:52;16.55;;;10.75;;
33836;SDS011;20140;49.356;8.812;2022-12-17T02:06:36;17.93;;;11.53;;
33836;SDS011;20140;49.356;8.812;2022-12-17T02:12:46;17.02;;;11.13;;
33836;SDS011;20140;49.356;8.812;2022-12-17T02:18:43;18.98;;;11.98;;
33836;SDS011;20140;49.356;8.812;2022-12-17T02:21:32;22.67;;;12.70;;
33836;SDS011;20140;49.356;8.812;2022-12-17T02:27:20;20.00;;;11.30;;
33836;SDS011;20140;49.356;8.812;2022-12-17T02:30:06;19.52;;;11.70;;
33836;SDS011;20140;49.356;8.812;2022-12-17T02:32:51;18.05;;;12.43;;
33836;SDS011;20140;49.356;8.812;2022-12-17T02:35:47;18.13;;;11.43;;
33836;SDS011;20140;49.356;8.812;2022-12-17T02:38:35;17.87;;;11.37;;
33836;SDS011;20140;49.356;8.812;2022-12-17T02:44:15;19.50;;;11.60;;
33836;SDS011;20140;49.356;8.812;2022-12-17T02:47:02;22.90;;;13.03;;
33836;SDS011;20140;49.356;8.812;2022-12-17T02:49:49;22.27;;;12.77;;
33836;SDS011;20140;49.356;8.812;2022-12-17T02:52:33;18.67;;;11.77;;
33836;SDS011;20140;49.356;8.812;2022-12-17T02:55:21;19.55;;;12.32;;
33836;SDS011;20140;49.356;8.812;2022-12-17T02:58:05;16.85;;;10.57;;
33836;SDS011;20140;49.356;8.812;2022-12-17T03:00:49;18.58;;;11.82;;
33836;SDS011;20140;49.356;8.812;2022-12-17T03:03:33;16.95;;;12.63;;
33836;SDS011;20140;49.356;8.812;2022-12-17T03:06:17;17.70;;;11.63;;
33836;SDS011;20140;49.356;8.812;2022-12-17T03:09:01;20.33;;;12.82;;
33836;SDS011;20140;49.356;8.812;2022-12-17T03:11:46;18.63;;;12.35;;
33836;SDS011;20140;49.356;8.812;2022-12-17T03:14:30;23.52;;;11.68;;
33836;SDS011;20140;49.356;8.812;2022-12-17T03:17:14;20.05;;;11.32;;
33836;SDS011;20140;49.356;8.812;2022-12-17T03:19:58;17.52;;;11.32;;
33836;SDS011;20140;49.356;8.812;2022-12-17T03:22:42;14.98;;;9.55;;
33836;SDS011;20140;49.356;8.812;2022-12-17T03:25:26;19.45;;;11.70;;
33836;SDS011;20140;49.356;8.812;2022-12-17T03:28:10;17.63;;;11.45;;
33836;SDS011;20140;49.356;8.812;2022-12-17T03:30:58;18.88;;;12.68;;
33836;SDS011;20140;49.356;8.812;2022-12-17T03:37:04;19.63;;;11.27;;
33836;SDS011;20140;49.356;8.812;2022-12-17T03:39:49;21.02;;;12.80;;
33836;SDS011;20140;49.356;8.812;2022-12-17T03:42:33;21.20;;;12.75;;
33836;SDS011;20140;49.356;8.812;2022-12-17T03:45:17;18.90;;;11.50;;
33836;SDS011;20140;49.356;8.812;2022-12-17T03:50:50;20.88;;;12.48;;
33836;SDS011;20140;49.356;8.812;2022-12-17T03:53:35;24.23;;;11.48;;
33836;SDS011;20140;49.356;8.812;2022-12-17T03:56:19;20.52;;;11.95;;
33836;SDS011;20140;49.356;8.812;2022-12-17T03:59:03;20.87;;;11.87;;
33836;SDS011;20140;49.356;8.812;2022-12-17T04:01:47;21.42;;;12.55;;
33836;SDS011;20140;49.356;8.812;2022-12-17T04:04:31;16.40;;;12.02;;
33836;SDS011;20140;49.356;8.812;2022-12-17T04:07:15;18.10;;;11.70;;
33836;SDS011;20140;49.356;8.812;2022-12-17T04:09:59;18.83;;;11.25;;
33836;SDS011;20140;49.356;8.812;2022-12-17T04:12:42;20.40;;;11.43;;
33836;SDS011;20140;49.356;8.812;2022-12-17T04:15:27;16.92;;;10.93;;
33836;SDS011;20140;49.356;8.812;2022-12-17T04:18:10;21.23;;;11.43;;
33836;SDS011;20140;49.356;8.812;2022-12-17T04:20:55;17.98;;;11.07;;
33836;SDS011;20140;49.356;8.812;2022-12-17T04:23:39;16.85;;;10.50;;
33836;SDS011;20140;49.356;8.812;2022-12-17T04:26:22;18.83;;;11.13;;
33836;SDS011;20140;49.356;8.812;2022-12-17T04:29:07;19.73;;;11.77;;
33836;SDS011;20140;49.356;8.812;2022-12-17T04:31:51;17.98;;;11.15;;
33836;SDS011;20140;49.356;8.812;2022-12-17T04:34:35;16.35;;;10.20;;
33836;SDS011;20140;49.356;8.812;2022-12-17T04:37:19;16.90;;;10.68;;
33836;SDS011;20140;49.356;8.812;2022-12-17T04:40:03;17.50;;;11.18;;
33836;SDS011;20140;49.356;8.812;2022-12-17T04:42:47;16.15;;;10.07;;
33836;SDS011;20140;49.356;8.812;2022-12-17T04:45:42;17.92;;;10.95;;
33836;SDS011;20140;49.356;8.812;2022-12-17T04:48:26;19.42;;;11.63;;
33836;SDS011;20140;49.356;8.812;2022-12-17T04:51:10;19.05;;;11.40;;
33836;SDS011;20140;49.356;8.812;2022-12-17T04:53:54;18.13;;;11.07;;
33836;SDS011;20140;49.356;8.812;2022-12-17T04:56:38;17.20;;;10.75;;
33836;SDS011;20140;49.356;8.812;2022-12-17T04:59:23;16.10;;;11.00;;
33836;SDS011;20140;49.356;8.812;2022-12-17T05:02:07;23.17;;;12.32;;
33836;SDS011;20140;49.356;8.812;2022-12-17T05:04:51;19.50;;;11.18;;
33836;SDS011;20140;49.356;8.812;2022-12-17T05:07:35;18.73;;;10.57;;
33836;SDS011;20140;49.356;8.812;2022-12-17T05:10:19;15.33;;;11.00;;
33836;SDS011;20140;49.356;8.812;2022-12-17T05:13:03;18.20;;;11.88;;
33836;SDS011;20140;49.356;8.812;2022-12-17T05:15:46;17.10;;;11.18;;
33836;SDS011;20140;49.356;8.812;2022-12-17T05:18:31;16.02;;;9.98;;
33836;SDS011;20140;49.356;8.812;2022-12-17T05:21:15;17.25;;;10.68;;
33836;SDS011;20140;49.356;8.812;2022-12-17T05:23:59;19.02;;;10.73;;
33836;SDS011;20140;49.356;8.812;2022-12-17T05:26:44;16.73;;;11.48;;
33836;SDS011;20140;49.356;8.812;2022-12-17T05:29:28;17.50;;;11.30;;
33836;SDS011;20140;49.356;8.812;2022-12-17T05:32:12;15.93;;;10.93;;
33836;SDS011;20140;49.356;8.812;2022-12-17T05:34:56;17.38;;;11.85;;
33836;SDS011;20140;49.356;8.812;2022-12-17T05:37:40;19.47;;;10.77;;
33836;SDS011;20140;49.356;8.812;2022-12-17T05:40:24;15.80;;;10.13;;
33836;SDS011;20140;49.356;8.812;2022-12-17T05:43:09;16.45;;;10.48;;
33836;SDS011;20140;49.356;8.812;2022-12-17T05:45:55;17.25;;;10.55;;
33836;SDS011;20140;49.356;8.812;2022-12-17T05:48:39;17.85;;;10.10;;
33836;SDS011;20140;49.356;8.812;2022-12-17T05:51:23;15.35;;;10.57;;
33836;SDS011;20140;49.356;8.812;2022-12-17T05:54:07;19.38;;;10.43;;
33836;SDS011;20140;49.356;8.812;2022-12-17T05:56:52;20.30;;;10.82;;
33836;SDS011;20140;49.356;8.812;2022-12-17T05:59:36;16.40;;;11.15;;
33836;SDS011;20140;49.356;8.812;2022-12-17T06:02:20;19.77;;;11.35;;
33836;SDS011;20140;49.356;8.812;2022-12-17T06:05:05;24.73;;;15.15;;
33836;SDS011;20140;49.356;8.812;2022-12-17T06:07:49;26.97;;;15.33;;
33836;SDS011;20140;49.356;8.812;2022-12-17T06:10:33;26.80;;;14.23;;
33836;SDS011;20140;49.356;8.812;2022-12-17T06:13:17;26.05;;;13.82;;
33836;SDS011;20140;49.356;8.812;2022-12-17T06:16:01;25.38;;;13.88;;
33836;SDS011;20140;49.356;8.812;2022-12-17T06:18:45;20.27;;;12.10;;
33836;SDS011;20140;49.356;8.812;2022-12-17T06:21:29;18.70;;;11.23;;
33836;SDS011;20140;49.356;8.812;2022-12-17T06:24:13;17.38;;;11.00;;
33836;SDS011;20140;49.356;8.812;2022-12-17T06:27:02;14.70;;;9.93;;
33836;SDS011;20140;49.356;8.812;2022-12-17T06:29:46;23.45;;;11.07;;
33836;SDS011;20140;49.356;8.812;2022-12-17T06:32:30;18.52;;;11.30;;
33836;SDS011;20140;49.356;8.812;2022-12-17T06:35:14;17.58;;;10.82;;
33836;SDS011;20140;49.356;8.812;2022-12-17T06:37:59;18.75;;;10.93;;
33836;SDS011;20140;49.356;8.812;2022-12-17T06:40:45;18.92;;;11.05;;
33836;SDS011;20140;49.356;8.812;2022-12-17T06:43:29;18.95;;;10.95;;
33836;SDS011;20140;49.356;8.812;2022-12-17T06:46:13;18.50;;;10.00;;
33836;SDS011;20140;49.356;8.812;2022-12-17T06:48:57;13.73;;;9.90;;
33836;SDS011;20140;49.356;8.812;2022-12-17T06:51:41;17.20;;;11.15;;
33836;SDS011;20140;49.356;8.812;2022-12-17T06:54:25;16.00;;;9.98;;
33836;SDS011;20140;49.356;8.812;2022-12-17T06:57:11;16.10;;;9.80;;
33836;SDS011;20140;49.356;8.812;2022-12-17T06:59:55;16.38;;;11.65;;
33836;SDS011;20140;49.356;8.812;2022-12-17T07:02:39;18.23;;;10.98;;
33836;SDS011;20140;49.356;8.812;2022-12-17T07:05:23;15.38;;;10.60;;
33836;SDS011;20140;49.356;8.812;2022-12-17T07:08:08;17.65;;;10.63;;
33836;SDS011;20140;49.356;8.812;2022-12-17T07:10:52;18.37;;;11.43;;
33836;SDS011;20140;49.356;8.812;2022-12-17T07:13:36;16.33;;;11.48;;
33836;SDS011;20140;49.356;8.812;2022-12-17T07:16:20;17.95;;;11.98;;
33836;SDS011;20140;49.356;8.812;2022-12-17T07:19:04;18.55;;;10.85;;
33836;SDS011;20140;49.356;8.812;2022-12-17T07:21:48;16.83;;;11.07;;
33836;SDS011;20140;49.356;8.812;2022-12-17T07:24:32;18.38;;;11.50;;
33836;SDS011;20140;49.356;8.812;2022-12-17T07:27:16;19.77;;;10.83;;
33836;SDS011;20140;49.356;8.812;2022-12-17T07:30:00;18.35;;;10.88;;
33836;SDS011;20140;49.356;8.812;2022-12-17T07:32:44;20.83;;;11.60;;
33836;SDS011;20140;49.356;8.812;2022-12-17T07:35:28;16.02;;;10.65;;
33836;SDS011;20140;49.356;8.812;2022-12-17T07:38:12;16.43;;;10.33;;
33836;SDS011;20140;49.356;8.812;2022-12-17T07:40:59;17.25;;;11.02;;
33836;SDS011;20140;49.356;8.812;2022-12-17T07:43:43;15.02;;;9.85;;
33836;SDS011;20140;49.356;8.812;2022-12-17T07:46:27;16.35;;;10.18;;
33836;SDS011;20140;49.356;8.812;2022-12-17T07:49:11;16.83;;;10.03;;
33836;SDS011;20140;49.356;8.812;2022-12-17T07:51:55;17.17;;;10.32;;
33836;SDS011;20140;49.356;8.812;2022-12-17T07:54:39;19.10;;;10.43;;
33836;SDS011;20140;49.356;8.812;2022-12-17T07:57:24;17.83;;;10.77;;
33836;SDS011;20140;49.356;8.812;2022-12-17T08:00:08;17.50;;;9.90;;
33836;SDS011;20140;49.356;8.812;2022-12-17T08:02:57;16.92;;;10.50;;
33836;SDS011;20140;49.356;8.812;2022-12-17T08:05:41;15.45;;;10.57;;
33836;SDS011;20140;49.356;8.812;2022-12-17T08:08:26;18.40;;;10.73;;
33836;SDS011;20140;49.356;8.812;2022-12-17T08:11:10;17.70;;;9.90;;
33836;SDS011;20140;49.356;8.812;2022-12-17T08:13:54;15.77;;;9.73;;
33836;SDS011;20140;49.356;8.812;2022-12-17T08:16:38;15.23;;;9.25;;
33836;SDS011;20140;49.356;8.812;2022-12-17T08:19:22;18.27;;;9.82;;
33836;SDS011;20140;49.356;8.812;2022-12-17T08:22:06;22.52;;;10.30;;
33836;SDS011;20140;49.356;8.812;2022-12-17T08:24:50;16.85;;;9.63;;
33836;SDS011;20140;49.356;8.812;2022-12-17T08:27:34;18.27;;;10.95;;
33836;SDS011;20140;49.356;8.812;2022-12-17T08:30:18;15.02;;;9.65;;
33836;SDS011;20140;49.356;8.812;2022-12-17T08:33:02;15.10;;;9.35;;
33836;SDS011;20140;49.356;8.812;2022-12-17T08:35:54;17.85;;;10.75;;
33836;SDS011;20140;49.356;8.812;2022-12-17T08:38:39;15.85;;;10.05;;
33836;SDS011;20140;49.356;8.812;2022-12-17T08:41:24;26.77;;;15.52;;
33836;SDS011;20140;49.356;8.812;2022-12-17T08:44:08;23.77;;;16.37;;
33836;SDS011;20140;49.356;8.812;2022-12-17T08:46:52;31.35;;;20.45;;
33836;SDS011;20140;49.356;8.812;2022-12-17T08:49:36;32.63;;;22.38;;
33836;SDS011;20140;49.356;8.812;2022-12-17T08:52:20;34.05;;;22.52;;
33836;SDS011;20140;49.356;8.812;2022-12-17T08:55:05;34.72;;;20.95;;
33836;SDS011;20140;49.356;8.812;2022-12-17T08:57:54;33.50;;;19.23;;
33836;SDS011;20140;49.356;8.812;2022-12-17T09:00:39;29.40;;;19.33;;
33836;SDS011;20140;49.356;8.812;2022-12-17T09:03:23;27.10;;;18.50;;
33836;SDS011;20140;49.356;8.812;2022-12-17T09:06:08;28.88;;;17.83;;
33836;SDS011;20140;49.356;8.812;2022-12-17T09:08:53;30.48;;;19.00;;
33836;SDS011;20140;49.356;8.812;2022-12-17T09:11:37;29.50;;;20.17;;
33836;SDS011;20140;49.356;8.812;2022-12-17T09:14:21;32.10;;;19.05;;
33836;SDS011;20140;49.356;8.812;2022-12-17T09:17:04;27.85;;;17.02;;
33836;SDS011;20140;49.356;8.812;2022-12-17T09:19:48;32.77;;;18.90;;
33836;SDS011;20140;49.356;8.812;2022-12-17T09:22:32;29.60;;;16.63;;
33836;SDS011;20140;49.356;8.812;2022-12-17T09:25:17;27.05;;;14.43;;
33836;SDS011;20140;49.356;8.812;2022-12-17T09:28:01;21.60;;;14.00;;
33836;SDS011;20140;49.356;8.812;2022-12-17T09:30:46;22.08;;;13.75;;
33836;SDS011;20140;49.356;8.812;2022-12-17T09:33:30;20.98;;;13.10;;
33836;SDS011;20140;49.356;8.812;2022-12-17T09:36:15;21.67;;;13.35;;
33836;SDS011;20140;49.356;8.812;2022-12-17T09:38:59;18.90;;;12.20;;
33836;SDS011;20140;49.356;8.812;2022-12-17T09:41:56;20.00;;;13.43;;
33836;SDS011;20140;49.356;8.812;2022-12-17T09:47:51;23.70;;;13.20;;
33836;SDS011;20140;49.356;8.812;2022-12-17T09:50:42;18.98;;;11.90;;
33836;SDS011;20140;49.356;8.812;2022-12-17T09:53:36;16.90;;;12.15;;
33836;SDS011;20140;49.356;8.812;2022-12-17T09:56:29;18.00;;;12.30;;
33836;SDS011;20140;49.356;8.812;2022-12-17T09:59:19;17.75;;;12.88;;
33836;SDS011;20140;49.356;8.812;2022-12-17T10:02:18;22.55;;;14.82;;
33836;SDS011;20140;49.356;8.812;2022-12-17T10:05:12;22.65;;;14.20;;
33836;SDS011;20140;49.356;8.812;2022-12-17T10:08:04;28.40;;;18.02;;
33836;SDS011;20140;49.356;8.812;2022-12-17T10:10:50;24.95;;;16.17;;
33836;SDS011;20140;49.356;8.812;2022-12-17T10:13:35;24.20;;;17.38;;
33836;SDS011;20140;49.356;8.812;2022-12-17T10:19:15;20.90;;;13.95;;
33836;SDS011;20140;49.356;8.812;2022-12-17T10:22:10;24.58;;;15.32;;
33836;SDS011;20140;49.356;8.812;2022-12-17T10:24:55;22.25;;;14.00;;
33836;SDS011;20140;49.356;8.812;2022-12-17T10:27:39;50.70;;;24.60;;
33836;SDS011;20140;49.356;8.812;2022-12-17T10:30:24;36.28;;;20.75;;
33836;SDS011;20140;49.356;8.812;2022-12-17T10:33:11;29.13;;;16.90;;
33836;SDS011;20140;49.356;8.812;2022-12-17T10:36:01;21.60;;;13.30;;
33836;SDS011;20140;49.356;8.812;2022-12-17T10:38:51;18.38;;;12.30;;
33836;SDS011;20140;49.356;8.812;2022-12-17T10:41:39;18.20;;;11.68;;
33836;SDS011;20140;49.356;8.812;2022-12-17T10:44:36;17.38;;;11.38;;
33836;SDS011;20140;49.356;8.812;2022-12-17T10:47:21;20.42;;;13.18;;
33836;SDS011;20140;49.356;8.812;2022-12-17T10:52:56;20.55;;;13.88;;
33836;SDS011;20140;49.356;8.812;2022-12-17T10:55:48;17.27;;;12.60;;
33836;SDS011;20140;49.356;8.812;2022-12-17T10:58:35;19.60;;;13.68;;
33836;SDS011;20140;49.356;8.812;2022-12-17T11:01:21;24.95;;;15.55;;
33836;SDS011;20140;49.356;8.812;2022-12-17T11:07:16;27.80;;;16.27;;
33836;SDS011;20140;49.356;8.812;2022-12-17T11:10:13;21.30;;;15.38;;
33836;SDS011;20140;49.356;8.812;2022-12-17T11:13:01;25.00;;;16.50;;
33836;SDS011;20140;49.356;8.812;2022-12-17T11:15:52;28.08;;;19.10;;
33836;SDS011;20140;49.356;8.812;2022-12-17T11:21:32;31.38;;;21.15;;
33836;SDS011;20140;49.356;8.812;2022-12-17T11:24:23;32.47;;;20.77;;
33836;SDS011;20140;49.356;8.812;2022-12-17T11:27:11;35.47;;;20.40;;
33836;SDS011;20140;49.356;8.812;2022-12-17T11:30:00;37.05;;;22.85;;
33836;SDS011;20140;49.356;8.812;2022-12-17T11:32:57;35.92;;;22.40;;
33836;SDS011;20140;49.356;8.812;2022-12-17T11:35:56;35.67;;;21.83;;
33836;SDS011;20140;49.356;8.812;2022-12-17T11:38:47;33.58;;;22.02;;
33836;SDS011;20140;49.356;8.812;2022-12-17T11:41:41;35.53;;;22.52;;
33836;SDS011;20140;49.356;8.812;2022-12-17T11:44:46;39.05;;;23.58;;
33836;SDS011;20140;49.356;8.812;2022-12-17T11:50:47;39.92;;;25.70;;
33836;SDS011;20140;49.356;8.812;2022-12-17T11:54:46;36.05;;;22.70;;
33836;SDS011;20140;49.356;8.812;2022-12-17T11:57:32;34.38;;;22.48;;
33836;SDS011;20140;49.356;8.812;2022-12-17T12:00:35;35.47;;;22.05;;
33836;SDS011;20140;49.356;8.812;2022-12-17T12:03:39;30.70;;;20.50;;
33836;SDS011;20140;49.356;8.812;2022-12-17T12:13:39;27.33;;;17.73;;
33836;SDS011;20140;49.356;8.812;2022-12-17T12:16:14;29.67;;;19.30;;
33836;SDS011;20140;49.356;8.812;2022-12-17T12:22:50;27.90;;;19.20;;
33836;SDS011;20140;49.356;8.812;2022-12-17T12:29:09;29.03;;;19.83;;
33836;SDS011;20140;49.356;8.812;2022-12-17T12:32:12;28.40;;;19.75;;
33836;SDS011;20140;49.356;8.812;2022-12-17T12:35:03;30.55;;;18.80;;
33836;SDS011;20140;49.356;8.812;2022-12-17T12:37:53;28.00;;;20.20;;
33836;SDS011;20140;49.356;8.812;2022-12-17T12:40:52;27.08;;;19.17;;
33836;SDS011;20140;49.356;8.812;2022-12-17T12:43:44;29.60;;;20.25;;
33836;SDS011;20140;49.356;8.812;2022-12-17T12:49:56;21.95;;;14.88;;
33836;SDS011;20140;49.356;8.812;2022-12-17T12:52:42;21.92;;;15.70;;
33836;SDS011;20140;49.356;8.812;2022-12-17T12:55:37;21.15;;;15.73;;
33836;SDS011;20140;49.356;8.812;2022-12-17T12:58:23;19.13;;;13.68;;
33836;SDS011;20140;49.356;8.812;2022-12-17T13:01:08;21.77;;;14.68;;
33836;SDS011;20140;49.356;8.812;2022-12-17T13:03:52;19.52;;;13.88;;
33836;SDS011;20140;49.356;8.812;2022-12-17T13:06:44;21.73;;;15.55;;
33836;SDS011;20140;49.356;8.812;2022-12-17T13:14:28;25.50;;;16.27;;
33836;SDS011;20140;49.356;8.812;2022-12-17T13:19:40;27.88;;;18.58;;
33836;SDS011;20140;49.356;8.812;2022-12-17T13:24:40;26.80;;;18.85;;
33836;SDS011;20140;49.356;8.812;2022-12-17T13:35:37;25.40;;;18.38;;
33836;SDS011;20140;49.356;8.812;2022-12-17T13:40:54;30.05;;;19.75;;
33836;SDS011;20140;49.356;8.812;2022-12-17T13:43:33;30.30;;;19.75;;
33836;SDS011;20140;49.356;8.812;2022-12-17T13:46:27;28.20;;;19.48;;
33836;SDS011;20140;49.356;8.812;2022-12-17T13:48:59;31.13;;;20.67;;
33836;SDS011;20140;49.356;8.812;2022-12-17T13:51:28;30.63;;;18.42;;
33836;SDS011;20140;49.356;8.812;2022-12-17T13:54:00;27.40;;;19.20;;
33836;SDS011;20140;49.356;8.812;2022-12-17T13:56:28;28.50;;;19.63;;
33836;SDS011;20140;49.356;8.812;2022-12-17T13:58:58;28.73;;;18.75;;
33836;SDS011;20140;49.356;8.812;2022-12-17T14:01:28;26.15;;;19.77;;
33836;SDS011;20140;49.356;8.812;2022-12-17T14:03:55;28.98;;;19.20;;
33836;SDS011;20140;49.356;8.812;2022-12-17T14:06:24;30.83;;;20.75;;
33836;SDS011;20140;49.356;8.812;2022-12-17T14:08:56;30.95;;;20.58;;
33836;SDS011;20140;49.356;8.812;2022-12-17T14:11:22;26.40;;;19.65;;
33836;SDS011;20140;49.356;8.812;2022-12-17T14:14:08;26.87;;;19.40;;
33836;SDS011;20140;49.356;8.812;2022-12-17T14:16:41;31.58;;;19.90;;
33836;SDS011;20140;49.356;8.812;2022-12-17T14:19:07;27.55;;;19.52;;
33836;SDS011;20140;49.356;8.812;2022-12-17T14:21:34;29.15;;;20.50;;
33836;SDS011;20140;49.356;8.812;2022-12-17T14:24:01;33.13;;;24.10;;
33836;SDS011;20140;49.356;8.812;2022-12-17T14:26:27;39.60;;;24.10;;
33836;SDS011;20140;49.356;8.812;2022-12-17T14:28:53;41.65;;;25.20;;
33836;SDS011;20140;49.356;8.812;2022-12-17T14:31:21;42.28;;;24.95;;
33836;SDS011;20140;49.356;8.812;2022-12-17T14:34:04;43.17;;;25.75;;
33836;SDS011;20140;49.356;8.812;2022-12-17T14:36:32;45.37;;;26.77;;
33836;SDS011;20140;49.356;8.812;2022-12-17T14:39:01;41.42;;;25.38;;
33836;SDS011;20140;49.356;8.812;2022-12-17T14:41:36;39.67;;;25.95;;
33836;SDS011;20140;49.356;8.812;2022-12-17T14:44:21;41.15;;;26.08;;
33836;SDS011;20140;49.356;8.812;2022-12-17T14:46:53;43.95;;;25.92;;
33836;SDS011;20140;49.356;8.812;2022-12-17T14:49:47;42.40;;;26.80;;
33836;SDS011;20140;49.356;8.812;2022-12-17T14:57:51;43.78;;;26.92;;
33836;SDS011;20140;49.356;8.812;2022-12-17T15:00:17;42.30;;;27.95;;
33836;SDS011;20140;49.356;8.812;2022-12-17T15:02:46;42.70;;;26.75;;
33836;SDS011;20140;49.356;8.812;2022-12-17T15:05:15;42.97;;;26.80;;
33836;SDS011;20140;49.356;8.812;2022-12-17T15:07:41;48.38;;;28.73;;
33836;SDS011;20140;49.356;8.812;2022-12-17T15:10:08;45.22;;;26.73;;
33836;SDS011;20140;49.356;8.812;2022-12-17T15:12:35;47.80;;;28.17;;
33836;SDS011;20140;49.356;8.812;2022-12-17T15:15:01;46.65;;;29.33;;
33836;SDS011;20140;49.356;8.812;2022-12-17T15:17:26;51.30;;;29.92;;
33836;SDS011;20140;49.356;8.812;2022-12-17T15:19:52;57.60;;;30.30;;
33836;SDS011;20140;49.356;8.812;2022-12-17T15:22:17;50.47;;;31.43;;
33836;SDS011;20140;49.356;8.812;2022-12-17T15:24:43;48.03;;;29.53;;
33836;SDS011;20140;49.356;8.812;2022-12-17T15:27:13;48.22;;;29.95;;
33836;SDS011;20140;49.356;8.812;2022-12-17T15:29:40;50.67;;;29.52;;
33836;SDS011;20140;49.356;8.812;2022-12-17T15:32:06;52.72;;;31.02;;
33836;SDS011;20140;49.356;8.812;2022-12-17T15:34:32;44.20;;;27.48;;
33836;SDS011;20140;49.356;8.812;2022-12-17T15:36:57;49.83;;;29.80;;
33836;SDS011;20140;49.356;8.812;2022-12-17T15:39:23;45.83;;;28.05;;
33836;SDS011;20140;49.356;8.812;2022-12-17T15:41:48;45.92;;;28.98;;
33836;SDS011;20140;49.356;8.812;2022-12-17T15:44:33;46.63;;;27.60;;
33836;SDS011;20140;49.356;8.812;2022-12-17T15:46:59;48.70;;;28.65;;
33836;SDS011;20140;49.356;8.812;2022-12-17T15:49:24;51.43;;;29.50;;
33836;SDS011;20140;49.356;8.812;2022-12-17T15:51:50;50.17;;;29.47;;
33836;SDS011;20140;49.356;8.812;2022-12-17T15:54:15;42.53;;;26.52;;
33836;SDS011;20140;49.356;8.812;2022-12-17T15:56:41;48.63;;;29.15;;
33836;SDS011;20140;49.356;8.812;2022-12-17T15:59:06;53.42;;;29.75;;
33836;SDS011;20140;49.356;8.812;2022-12-17T16:01:32;47.15;;;27.92;;
33836;SDS011;20140;49.356;8.812;2022-12-17T16:03:58;48.20;;;30.77;;
33836;SDS011;20140;49.356;8.812;2022-12-17T16:06:24;52.75;;;30.20;;
33836;SDS011;20140;49.356;8.812;2022-12-17T16:08:51;50.50;;;27.98;;
33836;SDS011;20140;49.356;8.812;2022-12-17T16:11:17;48.30;;;28.17;;
33836;SDS011;20140;49.356;8.812;2022-12-17T16:13:42;44.57;;;28.17;;
33836;SDS011;20140;49.356;8.812;2022-12-17T16:16:08;45.75;;;27.30;;
33836;SDS011;20140;49.356;8.812;2022-12-17T16:18:34;49.47;;;27.67;;
33836;SDS011;20140;49.356;8.812;2022-12-17T16:21:05;51.40;;;29.17;;
33836;SDS011;20140;49.356;8.812;2022-12-17T16:23:31;47.10;;;26.40;;
33836;SDS011;20140;49.356;8.812;2022-12-17T16:25:58;47.55;;;28.50;;
33836;SDS011;20140;49.356;8.812;2022-12-17T16:28:25;44.83;;;28.77;;
33836;SDS011;20140;49.356;8.812;2022-12-17T16:30:58;46.67;;;27.83;;
33836;SDS011;20140;49.356;8.812;2022-12-17T16:33:36;50.25;;;30.08;;
33836;SDS011;20140;49.356;8.812;2022-12-17T16:36:03;43.85;;;28.27;;
33836;SDS011;20140;49.356;8.812;2022-12-17T16:38:30;52.80;;;31.13;;
33836;SDS011;20140;49.356;8.812;2022-12-17T16:40:58;52.37;;;35.07;;
33836;SDS011;20140;49.356;8.812;2022-12-17T16:43:25;49.80;;;30.60;;
33836;SDS011;20140;49.356;8.812;2022-12-17T16:45:52;43.50;;;25.10;;
33836;SDS011;20140;49.356;8.812;2022-12-17T16:48:19;43.03;;;25.73;;
33836;SDS011;20140;49.356;8.812;2022-12-17T16:50:45;41.63;;;26.37;;
33836;SDS011;20140;49.356;8.812;2022-12-17T16:53:12;47.75;;;27.30;;
33836;SDS011;20140;49.356;8.812;2022-12-17T16:55:45;45.55;;;27.55;;
33836;SDS011;20140;49.356;8.812;2022-12-17T16:58:12;53.60;;;31.98;;
33836;SDS011;20140;49.356;8.812;2022-12-17T17:00:39;57.35;;;37.95;;
33836;SDS011;20140;49.356;8.812;2022-12-17T17:03:05;57.25;;;36.38;;
33836;SDS011;20140;49.356;8.812;2022-12-17T17:05:32;57.50;;;35.22;;
33836;SDS011;20140;49.356;8.812;2022-12-17T17:08:02;57.63;;;35.00;;
33836;SDS011;20140;49.356;8.812;2022-12-17T17:10:29;56.40;;;33.67;;
33836;SDS011;20140;49.356;8.812;2022-12-17T17:12:55;52.40;;;31.70;;
33836;SDS011;20140;49.356;8.812;2022-12-17T17:15:21;47.20;;;29.52;;
33836;SDS011;20140;49.356;8.812;2022-12-17T17:17:47;48.38;;;27.65;;
33836;SDS011;20140;49.356;8.812;2022-12-17T17:20:13;42.25;;;25.92;;
33836;SDS011;20140;49.356;8.812;2022-12-17T17:22:39;39.97;;;24.65;;
33836;SDS011;20140;49.356;8.812;2022-12-17T17:25:05;44.95;;;25.42;;
33836;SDS011;20140;49.356;8.812;2022-12-17T17:27:31;41.88;;;25.60;;
33836;SDS011;20140;49.356;8.812;2022-12-17T17:29:56;44.47;;;24.13;;
33836;SDS011;20140;49.356;8.812;2022-12-17T17:32:23;39.70;;;23.63;;
33836;SDS011;20140;49.356;8.812;2022-12-17T17:34:49;39.08;;;23.58;;
33836;SDS011;20140;49.356;8.812;2022-12-17T17:37:14;48.10;;;26.95;;
33836;SDS011;20140;49.356;8.812;2022-12-17T17:39:40;39.15;;;24.27;;
33836;SDS011;20140;49.356;8.812;2022-12-17T17:42:06;36.03;;;24.20;;
33836;SDS011;20140;49.356;8.812;2022-12-17T17:44:31;41.40;;;24.73;;